Time;durP1;ratioP1;P1;durP2;ratioP2;P2;SDS_P1;SDS_P2;PMS_P1;PMS_P2;Temp;Humidity;BMP_temperature;BMP_pressure;BME280_temperature;BME280_humidity;BME280_pressure;Samples;Min_cycle;Max_cycle;Signal;HPM_P1;HPM_P2
2021/11/07 00:07:09;;;;;;;30.52;20.27;;;7.30;99.90;;;;;;5036422;28;20060;-86
2021/11/07 00:09:42;;;;;;;30.85;20.15;;;7.30;99.90;;;;;;5035753;28;20048;-87
2021/11/07 00:12:21;;;;;;;31.40;20.05;;;7.40;99.90;;;;;;5034792;28;20103;-86
2021/11/07 00:14:49;;;;;;;30.88;20.42;;;7.20;99.90;;;;;;5015065;28;20443;-86
2021/11/07 00:17:19;;;;;;;31.92;20.48;;;7.30;99.90;;;;;;5037710;28;20112;-87
2021/11/07 00:19:48;;;;;;;30.45;20.00;;;7.60;99.90;;;;;;5035283;28;20021;-86
2021/11/07 00:22:20;;;;;;;28.08;18.85;;;7.80;99.90;;;;;;5035774;28;20025;-85
2021/11/07 00:27:27;;;;;;;29.17;19.45;;;7.20;99.90;;;;;;5034972;28;20463;-86
2021/11/07 00:32:47;;;;;;;29.17;18.17;;;7.00;99.90;;;;;;5035299;28;20029;-85
2021/11/07 00:37:59;;;;;;;28.95;17.95;;;7.00;99.90;;;;;;5035974;28;20064;-87
2021/11/07 00:40:37;;;;;;;29.38;19.17;;;6.90;99.90;;;;;;5034106;28;20037;-86
2021/11/07 00:50:34;;;;;;;26.73;17.45;;;6.90;99.90;;;;;;5034597;28;20445;-87
2021/11/07 00:53:18;;;;;;;25.70;16.75;;;7.00;99.90;;;;;;5036113;28;20030;-87
2021/11/07 00:56:15;;;;;;;25.65;17.10;;;6.90;99.90;;;;;;5034419;28;20029;-86
2021/11/07 00:58:39;;;;;;;28.70;18.38;;;7.00;99.90;;;;;;5035038;28;20461;-86
2021/11/07 01:01:17;;;;;;;26.20;17.63;;;7.10;99.90;;;;;;5035603;28;20024;-86
2021/11/07 01:03:43;;;;;;;27.17;17.52;;;6.90;99.90;;;;;;5033412;28;20096;-87
2021/11/07 01:06:09;;;;;;;26.70;18.40;;;7.00;99.90;;;;;;5034234;28;20378;-87
2021/11/07 01:08:34;;;;;;;26.27;18.35;;;7.00;99.90;;;;;;5032220;28;20079;-87
2021/11/07 01:11:01;;;;;;;26.90;17.02;;;7.00;99.90;;;;;;5036774;28;20083;-87
2021/11/07 01:13:28;;;;;;;27.65;18.42;;;7.00;99.90;;;;;;5034603;28;20025;-86
2021/11/07 01:15:54;;;;;;;27.70;18.00;;;7.00;99.90;;;;;;5033623;28;20539;-85
2021/11/07 01:18:20;;;;;;;27.67;18.83;;;7.00;99.90;;;;;;5033645;28;20527;-87
2021/11/07 01:20:47;;;;;;;28.83;18.55;;;7.10;99.90;;;;;;5030763;28;20097;-87
2021/11/07 01:23:18;;;;;;;25.10;17.30;;;7.10;99.90;;;;;;5037429;28;20024;-86
2021/11/07 01:25:46;;;;;;;27.13;17.20;;;7.10;99.90;;;;;;5033807;28;20025;-86
2021/11/07 01:28:13;;;;;;;27.65;18.35;;;7.00;99.90;;;;;;5034782;28;20549;-86
2021/11/07 01:30:47;;;;;;;26.15;17.65;;;6.90;99.90;;;;;;5034777;28;20053;-87
2021/11/07 01:33:19;;;;;;;26.98;18.15;;;6.90;99.90;;;;;;5034746;28;20025;-87
2021/11/07 01:38:37;;;;;;;26.45;16.98;;;7.00;99.90;;;;;;5042223;28;20675;-87
2021/11/07 01:41:06;;;;;;;24.73;16.98;;;7.40;99.90;;;;;;5033412;28;20581;-86
2021/11/07 01:43:32;;;;;;;25.85;18.35;;;7.40;99.90;;;;;;5032522;28;20493;-86
2021/11/07 01:46:18;;;;;;;26.58;18.35;;;6.90;99.90;;;;;;5032551;28;20472;-87
2021/11/07 01:48:53;;;;;;;26.38;17.48;;;7.30;99.90;;;;;;5032484;28;20044;-87
2021/11/07 01:51:18;;;;;;;27.38;17.98;;;7.00;99.90;;;;;;5032529;28;20082;-87
2021/11/07 01:53:45;;;;;;;26.50;17.60;;;7.00;99.90;;;;;;5011337;28;20030;-87
2021/11/07 01:56:13;;;;;;;24.13;16.17;;;7.00;99.90;;;;;;5034265;28;20038;-86
2021/11/07 01:58:41;;;;;;;25.95;17.05;;;7.00;99.90;;;;;;5032345;28;20087;-87
2021/11/07 02:01:07;;;;;;;25.08;16.90;;;6.90;99.90;;;;;;5032955;28;20159;-87
2021/11/07 02:03:33;;;;;;;24.13;16.48;;;6.90;99.90;;;;;;5032188;28;20072;-86
2021/11/07 02:06:00;;;;;;;27.35;17.40;;;6.90;99.90;;;;;;5029432;28;20551;-87
2021/11/07 02:08:26;;;;;;;25.63;17.20;;;7.00;99.90;;;;;;5030784;28;20041;-86
2021/11/07 02:10:54;;;;;;;26.10;17.73;;;6.90;99.90;;;;;;5031711;28;20396;-86
2021/11/07 02:13:20;;;;;;;24.98;17.13;;;6.90;99.90;;;;;;5032312;28;20048;-86
2021/11/07 02:15:46;;;;;;;24.70;17.42;;;6.90;99.90;;;;;;5033418;28;20041;-87
2021/11/07 02:18:12;;;;;;;23.75;16.33;;;6.80;99.90;;;;;;5033635;28;20036;-86
2021/11/07 02:20:41;;;;;;;23.23;16.08;;;6.80;99.90;;;;;;5030898;28;20025;-86
2021/11/07 02:23:11;;;;;;;23.90;16.88;;;6.70;99.90;;;;;;5036056;28;20017;-87
2021/11/07 02:25:38;;;;;;;23.05;16.48;;;7.10;99.90;;;;;;5036925;28;20033;-86
2021/11/07 02:28:05;;;;;;;24.10;16.85;;;6.80;99.90;;;;;;5038226;28;20021;-85
2021/11/07 02:30:32;;;;;;;23.98;16.90;;;6.90;99.90;;;;;;5038389;28;20069;-87
2021/11/07 02:32:59;;;;;;;25.60;16.50;;;7.50;99.90;;;;;;5033947;28;20405;-86
2021/11/07 02:35:26;;;;;;;23.33;17.02;;;7.40;99.90;;;;;;5037371;28;20034;-87
2021/11/07 02:37:53;;;;;;;23.65;16.63;;;6.90;99.90;;;;;;5037798;28;20025;-86
2021/11/07 02:40:18;;;;;;;22.50;15.63;;;7.00;99.90;;;;;;5038291;28;20040;-86
2021/11/07 02:42:45;;;;;;;23.27;15.55;;;7.30;99.90;;;;;;5037853;28;20021;-86
2021/11/07 02:45:14;;;;;;;22.77;15.98;;;6.80;99.90;;;;;;5035515;28;20513;-87
2021/11/07 02:47:40;;;;;;;20.25;14.93;;;6.70;99.90;;;;;;5034026;28;20034;-86
2021/11/07 02:50:07;;;;;;;21.48;15.00;;;6.80;99.90;;;;;;5040135;28;20493;-87
2021/11/07 02:52:33;;;;;;;21.08;15.60;;;6.80;99.90;;;;;;5036411;28;20026;-86
2021/11/07 02:54:59;;;;;;;22.45;16.17;;;6.80;99.90;;;;;;5037873;28;20367;-87
2021/11/07 02:57:26;;;;;;;21.83;16.27;;;6.80;99.90;;;;;;5037921;28;20041;-86
2021/11/07 02:59:58;;;;;;;23.05;15.63;;;6.80;99.90;;;;;;5034480;28;20022;-87
2021/11/07 03:02:24;;;;;;;24.77;16.55;;;6.60;99.90;;;;;;5037018;28;20116;-87
2021/11/07 03:04:50;;;;;;;22.75;16.08;;;6.60;99.90;;;;;;5039445;28;20079;-87
2021/11/07 03:07:16;;;;;;;22.08;15.70;;;7.00;99.90;;;;;;5037240;28;20478;-87
2021/11/07 03:09:41;;;;;;;22.52;16.52;;;6.60;99.90;;;;;;5037796;28;20029;-86
2021/11/07 03:12:10;;;;;;;23.27;15.80;;;6.40;99.90;;;;;;5034182;28;20037;-87
2021/11/07 03:14:38;;;;;;;21.48;15.60;;;6.50;99.90;;;;;;5034181;28;20113;-87
2021/11/07 03:17:05;;;;;;;23.02;15.50;;;6.40;99.90;;;;;;5039421;28;20474;-87
2021/11/07 03:19:32;;;;;;;21.90;15.82;;;6.40;99.90;;;;;;5037629;28;20033;-87
2021/11/07 03:22:06;;;;;;;22.83;15.85;;;6.40;99.90;;;;;;5037112;28;20059;-86
2021/11/07 03:24:31;;;;;;;22.25;15.75;;;6.50;99.90;;;;;;5037277;28;20041;-86
2021/11/07 03:26:58;;;;;;;22.45;15.38;;;6.60;99.90;;;;;;5034118;28;20147;-86
2021/11/07 03:29:32;;;;;;;22.70;14.80;;;6.50;99.90;;;;;;5036541;28;20040;-87
2021/11/07 03:32:08;;;;;;;21.38;15.43;;;6.50;99.90;;;;;;5037250;28;20520;-87
2021/11/07 03:34:42;;;;;;;20.75;14.52;;;6.40;99.90;;;;;;5036989;28;20029;-86
2021/11/07 03:37:09;;;;;;;20.80;15.02;;;6.40;99.90;;;;;;5037024;28;20017;-86
2021/11/07 03:39:37;;;;;;;23.90;16.02;;;6.60;99.90;;;;;;5036930;28;20053;-87
2021/11/07 03:42:10;;;;;;;23.48;16.25;;;6.40;99.90;;;;;;5034903;28;20453;-87
2021/11/07 03:44:42;;;;;;;22.13;16.02;;;6.40;99.90;;;;;;5033169;28;20029;-86
2021/11/07 03:47:09;;;;;;;23.02;16.67;;;6.40;99.90;;;;;;5039217;28;20033;-87
2021/11/07 03:49:38;;;;;;;25.58;16.40;;;6.40;99.90;;;;;;5036854;28;20433;-86
2021/11/07 03:52:05;;;;;;;26.23;16.52;;;6.50;99.90;;;;;;5035204;28;20021;-87
2021/11/07 03:54:31;;;;;;;21.20;15.10;;;6.50;99.90;;;;;;5033879;28;20140;-86
2021/11/07 03:56:59;;;;;;;22.05;15.60;;;6.60;99.90;;;;;;5033648;28;20060;-87
2021/11/07 03:59:26;;;;;;;22.33;15.63;;;6.60;99.90;;;;;;5035658;28;20032;-87
2021/11/07 04:01:52;;;;;;;23.40;16.02;;;6.60;99.90;;;;;;5038030;28;20078;-87
2021/11/07 04:04:18;;;;;;;22.77;15.80;;;6.60;99.90;;;;;;5034065;28;20029;-86
2021/11/07 04:06:44;;;;;;;23.67;15.85;;;6.60;99.90;;;;;;5036496;28;20017;-87
2021/11/07 04:09:10;;;;;;;21.30;15.23;;;6.60;99.90;;;;;;5035311;28;20028;-87
2021/11/07 04:11:38;;;;;;;24.55;16.10;;;6.60;99.90;;;;;;5033309;28;20450;-87
2021/11/07 04:14:08;;;;;;;24.58;16.35;;;6.60;99.90;;;;;;5038670;28;20084;-86
2021/11/07 04:16:37;;;;;;;22.20;15.57;;;6.50;99.90;;;;;;5036501;28;20017;-86
2021/11/07 04:19:03;;;;;;;21.83;15.93;;;6.50;99.90;;;;;;5035681;28;20021;-86
2021/11/07 04:21:28;;;;;;;24.27;15.88;;;6.60;99.90;;;;;;5034920;28;20505;-87
2021/11/07 04:23:54;;;;;;;24.58;16.10;;;6.60;99.90;;;;;;5032605;28;20029;-87
2021/11/07 04:26:21;;;;;;;21.63;15.23;;;6.60;99.90;;;;;;5036640;28;20045;-87
2021/11/07 04:28:47;;;;;;;25.30;16.48;;;6.60;99.90;;;;;;5036848;28;20045;-87
2021/11/07 04:31:13;;;;;;;23.55;15.20;;;6.60;99.90;;;;;;5034546;28;20022;-87
2021/11/07 04:33:39;;;;;;;22.80;15.63;;;6.60;99.90;;;;;;5034487;28;20143;-87
2021/11/07 04:36:05;;;;;;;20.52;15.30;;;6.60;99.90;;;;;;5033960;28;20056;-87
2021/11/07 04:38:31;;;;;;;22.00;15.75;;;6.60;99.90;;;;;;5033669;28;20039;-86
2021/11/07 04:40:57;;;;;;;21.23;15.30;;;6.60;99.90;;;;;;5035652;28;20029;-85
2021/11/07 04:43:23;;;;;;;22.23;15.77;;;6.50;99.90;;;;;;5035717;28;20056;-86
2021/11/07 04:45:49;;;;;;;24.45;16.13;;;7.00;99.90;;;;;;5036065;28;20044;-87
2021/11/07 04:48:14;;;;;;;23.88;16.40;;;6.60;99.90;;;;;;5034352;28;20021;-87
2021/11/07 04:50:40;;;;;;;24.73;15.75;;;6.60;99.90;;;;;;5031594;28;20029;-87
2021/11/07 04:53:08;;;;;;;23.95;15.63;;;6.60;99.90;;;;;;5037713;28;20029;-87
2021/11/07 04:55:37;;;;;;;25.35;15.80;;;6.60;99.90;;;;;;5035959;28;20025;-87
2021/11/07 04:58:04;;;;;;;22.17;15.05;;;6.60;99.90;;;;;;5035545;28;20039;-86
2021/11/07 05:00:32;;;;;;;24.08;16.00;;;6.50;99.90;;;;;;5035787;28;20028;-87
2021/11/07 05:03:02;;;;;;;24.08;15.57;;;6.50;99.90;;;;;;5031001;28;20548;-86
2021/11/07 05:05:35;;;;;;;23.15;15.10;;;6.50;99.90;;;;;;5033333;28;20278;-85
2021/11/07 05:08:01;;;;;;;21.48;14.20;;;6.50;99.90;;;;;;5035937;28;20437;-87
2021/11/07 05:10:27;;;;;;;23.80;14.90;;;6.30;99.90;;;;;;5034996;28;20056;-86
2021/11/07 05:12:53;;;;;;;23.27;16.20;;;6.30;99.90;;;;;;5033776;28;20022;-87
2021/11/07 05:15:19;;;;;;;22.70;14.73;;;6.40;99.90;;;;;;5035505;28;20068;-86
2021/11/07 05:17:45;;;;;;;21.33;14.85;;;6.40;99.90;;;;;;5030649;28;20025;-87
2021/11/07 05:20:12;;;;;;;22.55;15.23;;;6.50;99.90;;;;;;5044314;28;20068;-87
2021/11/07 05:22:38;;;;;;;21.35;14.35;;;6.40;99.90;;;;;;5035573;28;20478;-87
2021/11/07 05:25:05;;;;;;;21.35;14.98;;;6.40;99.90;;;;;;5034890;28;20029;-87
2021/11/07 05:27:31;;;;;;;20.48;14.55;;;6.40;99.90;;;;;;5033145;28;20398;-86
2021/11/07 05:29:56;;;;;;;20.27;14.93;;;6.40;99.90;;;;;;5030304;28;20113;-87
2021/11/07 05:32:22;;;;;;;21.27;14.63;;;6.40;99.90;;;;;;5034998;28;20470;-87
2021/11/07 05:34:47;;;;;;;21.38;14.43;;;6.40;99.90;;;;;;5035904;28;20096;-87
2021/11/07 05:37:13;;;;;;;20.77;15.02;;;6.30;99.90;;;;;;5034702;28;20021;-86
2021/11/07 05:39:39;;;;;;;24.02;15.05;;;6.80;99.90;;;;;;5032897;28;20480;-86
2021/11/07 05:42:05;;;;;;;23.92;15.10;;;6.50;99.90;;;;;;5033275;28;20053;-87
2021/11/07 05:44:31;;;;;;;20.20;13.68;;;6.50;99.90;;;;;;5030656;28;20021;-86
2021/11/07 05:46:57;;;;;;;19.80;12.90;;;6.50;99.90;;;;;;5036348;28;20087;-86
2021/11/07 05:49:24;;;;;;;20.38;14.13;;;6.40;99.90;;;;;;5033948;28;20029;-86
2021/11/07 05:51:50;;;;;;;21.65;15.07;;;6.40;99.90;;;;;;5033171;28;20032;-87
2021/11/07 05:54:16;;;;;;;21.55;15.00;;;6.40;99.90;;;;;;5034294;28;20397;-86
2021/11/07 05:56:42;;;;;;;21.73;14.30;;;6.40;99.90;;;;;;5030611;28;20026;-86
2021/11/07 05:59:08;;;;;;;20.25;14.55;;;6.30;99.90;;;;;;5035585;28;20030;-86
2021/11/07 06:01:35;;;;;;;22.65;15.00;;;6.30;99.90;;;;;;5034667;28;20120;-86
2021/11/07 06:04:05;;;;;;;19.90;14.50;;;6.40;99.90;;;;;;5033687;28;20421;-86
2021/11/07 06:06:32;;;;;;;21.85;14.75;;;6.50;99.90;;;;;;5034861;28;20032;-86
2021/11/07 06:08:58;;;;;;;20.77;14.00;;;6.90;99.90;;;;;;5031756;28;20045;-87
2021/11/07 06:11:24;;;;;;;23.23;15.18;;;6.30;99.90;;;;;;5033847;28;20021;-86
2021/11/07 06:13:50;;;;;;;22.92;15.50;;;6.30;99.90;;;;;;5033066;28;20026;-87
2021/11/07 06:16:17;;;;;;;23.02;15.63;;;6.40;99.90;;;;;;5034984;28;20032;-87
2021/11/07 06:18:42;;;;;;;25.98;15.50;;;6.40;99.90;;;;;;5034511;28;20032;-86
2021/11/07 06:21:10;;;;;;;21.80;14.93;;;6.30;99.90;;;;;;5032482;28;20025;-87
2021/11/07 06:23:36;;;;;;;23.08;15.07;;;6.50;99.90;;;;;;5030672;28;20395;-85
2021/11/07 06:26:03;;;;;;;20.92;14.52;;;6.40;99.90;;;;;;5035501;28;20045;-86
2021/11/07 06:28:29;;;;;;;22.35;15.25;;;6.90;99.90;;;;;;5032891;28;20496;-85
2021/11/07 06:30:55;;;;;;;23.35;14.82;;;6.40;99.90;;;;;;5032308;28;20087;-84
2021/11/07 06:33:21;;;;;;;21.90;15.00;;;6.40;99.90;;;;;;5033574;28;20032;-85
2021/11/07 06:35:47;;;;;;;22.08;15.45;;;6.40;99.90;;;;;;5029370;28;20029;-85
2021/11/07 06:38:13;;;;;;;21.55;15.15;;;6.40;99.90;;;;;;5035836;28;20420;-85
2021/11/07 06:40:39;;;;;;;24.60;15.80;;;6.40;99.90;;;;;;5032426;28;20433;-85
2021/11/07 06:43:07;;;;;;;22.92;14.27;;;6.40;99.90;;;;;;5033575;28;20036;-84
2021/11/07 06:45:34;;;;;;;21.85;14.73;;;6.30;99.90;;;;;;5033249;28;20047;-90
2021/11/07 06:48:00;;;;;;;21.05;13.95;;;6.30;99.90;;;;;;5030960;28;20036;-85
2021/11/07 06:50:26;;;;;;;20.65;13.55;;;6.30;99.90;;;;;;5032379;28;20441;-85
2021/11/07 06:52:52;;;;;;;20.58;13.18;;;6.30;99.90;;;;;;5035334;28;20084;-86
2021/11/07 06:55:18;;;;;;;20.00;13.82;;;6.30;99.90;;;;;;5033641;28;20029;-86
2021/11/07 06:57:45;;;;;;;20.33;13.75;;;6.20;99.90;;;;;;5033274;28;20120;-84
2021/11/07 07:00:15;;;;;;;22.85;13.90;;;6.20;99.90;;;;;;5032416;28;20138;-84
2021/11/07 07:02:41;;;;;;;20.20;13.43;;;6.20;99.90;;;;;;5029904;28;20072;-85
2021/11/07 07:05:08;;;;;;;21.80;13.65;;;6.20;99.90;;;;;;5035713;28;20037;-85
2021/11/07 07:07:37;;;;;;;22.05;13.27;;;6.20;99.90;;;;;;5033137;28;20129;-86
2021/11/07 07:10:11;;;;;;;21.48;13.98;;;6.20;99.90;;;;;;5026956;28;20457;-86
2021/11/07 07:12:48;;;;;;;19.98;12.43;;;6.40;99.90;;;;;;5025964;28;20017;-86
2021/11/07 07:15:19;;;;;;;18.45;11.93;;;6.20;99.90;;;;;;5034642;28;20052;-86
2021/11/07 07:20:37;;;;;;;19.67;13.63;;;6.30;99.90;;;;;;5037609;28;20029;-86
2021/11/07 07:28:47;;;;;;;20.33;12.23;;;6.70;99.90;;;;;;5036423;28;20117;-86
2021/11/07 07:34:07;;;;;;;19.80;12.27;;;6.50;99.90;;;;;;5036535;28;20429;-86
2021/11/07 07:36:35;;;;;;;17.33;11.50;;;6.50;99.90;;;;;;5036416;28;20156;-86
2021/11/07 07:39:01;;;;;;;18.90;11.88;;;6.50;99.90;;;;;;5034294;28;20061;-86
2021/11/07 07:41:27;;;;;;;18.85;12.18;;;6.60;99.90;;;;;;5034581;28;20031;-86
2021/11/07 07:43:53;;;;;;;19.52;11.23;;;6.70;99.90;;;;;;5038452;28;20029;-85
2021/11/07 07:46:21;;;;;;;16.65;11.38;;;6.70;99.90;;;;;;5035200;28;20036;-86
2021/11/07 07:48:47;;;;;;;18.25;11.60;;;6.70;99.90;;;;;;5034713;28;20449;-86
2021/11/07 07:51:17;;;;;;;18.30;11.00;;;7.20;99.90;;;;;;5035948;28;20489;-86
2021/11/07 07:53:43;;;;;;;16.75;10.43;;;6.90;99.90;;;;;;5031977;28;20478;-86
2021/11/07 07:56:09;;;;;;;17.42;11.57;;;6.90;99.90;;;;;;5037952;28;20101;-86
2021/11/07 07:58:37;;;;;;;15.63;10.93;;;6.90;99.90;;;;;;5035943;28;20026;-86
2021/11/07 08:01:04;;;;;;;15.70;10.75;;;7.40;99.90;;;;;;5036122;28;20489;-86
2021/11/07 08:03:30;;;;;;;16.73;10.25;;;6.90;99.90;;;;;;5035949;28;20032;-87
2021/11/07 08:05:56;;;;;;;18.70;12.18;;;7.00;99.90;;;;;;5033017;28;20026;-86
2021/11/07 08:08:22;;;;;;;14.88;10.02;;;7.10;99.90;;;;;;5035618;28;20100;-86
2021/11/07 08:10:48;;;;;;;13.73;9.20;;;7.10;99.90;;;;;;5034031;28;20029;-87
2021/11/07 08:13:13;;;;;;;16.98;10.52;;;7.00;99.90;;;;;;5036030;28;20068;-85
2021/11/07 08:15:39;;;;;;;15.25;10.07;;;7.20;99.90;;;;;;5036595;28;20037;-86
2021/11/07 08:18:05;;;;;;;16.48;10.52;;;7.10;99.90;;;;;;5033719;28;20283;-86
2021/11/07 08:20:31;;;;;;;15.07;9.90;;;7.30;99.90;;;;;;5034579;28;20029;-86
2021/11/07 08:22:56;;;;;;;14.63;10.65;;;7.20;99.90;;;;;;5034695;28;20512;-86
2021/11/07 08:25:23;;;;;;;14.52;9.70;;;7.30;99.90;;;;;;5033950;28;20108;-86
2021/11/07 08:27:52;;;;;;;14.32;9.82;;;7.50;99.90;;;;;;5033826;28;20524;-86
2021/11/07 08:30:21;;;;;;;14.75;9.30;;;8.20;99.90;;;;;;5035440;28;20093;-86
2021/11/07 08:32:47;;;;;;;14.90;9.55;;;8.10;99.90;;;;;;5015088;28;20022;-86
2021/11/07 08:35:13;;;;;;;14.75;9.25;;;7.70;99.90;;;;;;5037797;28;20504;-86
2021/11/07 08:37:54;;;;;;;15.23;9.82;;;7.90;99.90;;;;;;5035324;28;20022;-85
2021/11/07 08:40:40;;;;;;;16.52;10.77;;;8.00;99.90;;;;;;5034996;28;20485;-86
2021/11/07 08:54:21;;;;;;;17.88;10.40;;;8.40;99.90;;;;;;5035335;28;20151;-86
2021/11/07 09:10:21;;;;;;;17.23;10.93;;;8.90;99.90;;;;;;4984145;28;20046;-86
2021/11/07 09:12:49;;;;;;;17.58;11.57;;;8.50;99.90;;;;;;4984727;28;20425;-86
2021/11/07 09:15:16;;;;;;;26.00;17.38;;;10.00;99.90;;;;;;4984973;28;20045;-86
2021/11/07 09:17:44;;;;;;;28.52;19.83;;;9.10;99.90;;;;;;4988294;28;20419;-86
2021/11/07 09:20:16;;;;;;;21.95;15.20;;;8.60;99.90;;;;;;4986197;28;20483;-85
2021/11/07 09:22:48;;;;;;;21.77;17.17;;;8.40;99.90;;;;;;4975914;28;20119;-86
2021/11/07 09:25:23;;;;;;;20.33;14.70;;;8.70;99.90;;;;;;4976555;28;20039;-86
2021/11/07 09:28:38;;;;;;;16.52;12.05;;;8.70;99.90;;;;;;4975855;28;20039;-86
2021/11/07 09:33:32;;;;;;;13.80;10.57;;;8.80;99.90;;;;;;4975589;28;20072;-86
2021/11/07 09:38:34;;;;;;;17.35;10.50;;;8.30;99.90;;;;;;4973141;28;20035;-86
2021/11/07 09:41:38;;;;;;;14.25;9.65;;;8.20;99.90;;;;;;4975326;28;20038;-86
2021/11/07 09:44:06;;;;;;;11.65;8.82;;;8.40;99.90;;;;;;4970591;28;20046;-86
2021/11/07 09:46:40;;;;;;;12.45;9.40;;;8.40;99.90;;;;;;4991043;28;20041;-86
2021/11/07 09:51:49;;;;;;;14.07;9.32;;;8.20;99.90;;;;;;5033566;28;20049;-86
2021/11/07 09:54:17;;;;;;;13.77;9.77;;;8.20;99.90;;;;;;5033385;28;20079;-86
2021/11/07 09:56:52;;;;;;;14.45;10.32;;;8.10;99.90;;;;;;5030176;28;20422;-86
2021/11/07 09:59:18;;;;;;;14.10;10.07;;;8.70;99.90;;;;;;5044024;28;20025;-86
2021/11/07 10:01:45;;;;;;;15.55;9.95;;;8.10;99.90;;;;;;5034506;28;20036;-85
2021/11/07 10:04:12;;;;;;;19.10;10.80;;;8.10;99.90;;;;;;5033970;28;20022;-86
2021/11/07 10:06:46;;;;;;;17.30;10.50;;;8.10;99.90;;;;;;5033775;28;20036;-85
2021/11/07 10:09:31;;;;;;;15.20;9.73;;;8.30;99.90;;;;;;5033247;28;20036;-85
2021/11/07 10:12:07;;;;;;;12.18;8.70;;;8.30;99.90;;;;;;5016875;28;20108;-86
2021/11/07 10:14:49;;;;;;;14.63;9.70;;;8.50;99.90;;;;;;5030958;28;20026;-85
2021/11/07 10:17:48;;;;;;;13.13;9.35;;;8.60;99.90;;;;;;5043810;28;20035;-86
2021/11/07 10:20:43;;;;;;;12.43;8.80;;;8.40;99.90;;;;;;5043544;28;20492;-85
2021/11/07 10:23:19;;;;;;;16.08;9.52;;;8.30;99.90;;;;;;5036152;28;20175;-86
2021/11/07 10:25:56;;;;;;;13.07;9.27;;;8.40;99.90;;;;;;5031531;28;20037;-85
2021/11/07 10:28:28;;;;;;;11.52;8.45;;;8.90;99.90;;;;;;5033844;28;20100;-86
2021/11/07 10:31:24;;;;;;;13.63;9.27;;;8.90;99.90;;;;;;5033651;28;20048;-86
2021/11/07 10:45:25;;;;;;;12.50;9.02;;;9.30;99.90;;;;;;5034183;28;20119;-86
2021/11/07 10:53:37;;;;;;;11.02;7.82;;;9.30;99.90;;;;;;5048826;28;20586;-86
2021/11/07 10:56:07;;;;;;;8.48;6.85;;;10.60;99.90;;;;;;5039739;28;20120;-86
2021/11/07 10:58:35;;;;;;;7.38;6.55;;;10.20;99.90;;;;;;5037442;28;20477;-86
2021/11/07 11:01:11;;;;;;;10.43;7.35;;;10.50;99.90;;;;;;5035803;28;20048;-85
2021/11/07 11:03:45;;;;;;;7.45;6.20;;;10.00;99.90;;;;;;5035728;28;20393;-86
2021/11/07 11:06:13;;;;;;;8.93;6.93;;;10.10;99.90;;;;;;5035636;28;20110;-85
2021/11/07 11:09:03;;;;;;;7.55;6.40;;;10.30;99.90;;;;;;5034688;28;20509;-86
2021/11/07 11:11:41;;;;;;;8.02;6.47;;;10.60;99.90;;;;;;5046667;28;20436;-86
2021/11/07 11:16:55;;;;;;;8.80;6.60;;;10.80;99.90;;;;;;5036676;28;20486;-86
2021/11/07 11:34:58;;;;;;;6.30;5.35;;;14.10;99.90;;;;;;5034337;28;20116;-86
2021/11/07 11:42:47;;;;;;;7.40;5.13;;;14.50;99.90;;;;;;5034959;28;20036;-86
2021/11/07 11:45:16;;;;;;;7.78;5.40;;;14.60;99.90;;;;;;5035315;28;20063;-86
2021/11/07 11:53:39;;;;;;;5.15;4.65;;;14.70;99.90;;;;;;5046811;28;20036;-86
2021/11/07 11:57:01;;;;;;;6.05;4.75;;;14.30;99.90;;;;;;5037017;28;20132;-86
2021/11/07 11:59:29;;;;;;;5.55;5.05;;;13.90;99.90;;;;;;5036811;28;20041;-86
2021/11/07 12:05:02;;;;;;;11.32;5.40;;;14.80;99.90;;;;;;4986430;28;20038;-86
2021/11/07 12:07:35;;;;;;;6.32;5.15;;;15.70;99.90;;;;;;4979255;28;20042;-86
2021/11/07 12:10:07;;;;;;;8.02;5.50;;;13.20;99.90;;;;;;4977261;28;20121;-86
2021/11/07 12:12:52;;;;;;;6.25;4.72;;;13.60;99.90;;;;;;4977958;28;20038;-86
2021/11/07 12:15:37;;;;;;;6.38;4.75;;;16.20;99.90;;;;;;4977645;28;20101;-86
2021/11/07 12:18:06;;;;;;;7.70;4.80;;;19.10;99.90;;;;;;4975522;28;20038;-86
2021/11/07 12:20:38;;;;;;;6.90;4.85;;;18.10;99.90;;;;;;4974706;28;20035;-86
2021/11/07 12:23:23;;;;;;;6.40;4.53;;;17.90;99.90;;;;;;4972833;28;20432;-86
2021/11/07 12:25:51;;;;;;;5.30;4.43;;;19.00;99.90;;;;;;4986967;28;20073;-86
2021/11/07 12:28:18;;;;;;;6.07;4.38;;;19.80;99.90;;;;;;4980236;28;20043;-86
2021/11/07 12:30:45;;;;;;;7.20;4.72;;;22.00;99.90;;;;;;4977117;28;20035;-86
2021/11/07 12:33:19;;;;;;;5.85;5.13;;;20.90;99.90;;;;;;4976031;28;20034;-86
2021/11/07 12:36:00;;;;;;;6.40;4.82;;;23.40;99.90;;;;;;4973333;28;20081;-86
2021/11/07 12:41:19;;;;;;;5.97;5.00;;;25.00;99.90;;;;;;5044799;28;20389;-86
2021/11/07 12:44:06;;;;;;;6.00;5.40;;;25.00;99.90;;;;;;5034562;28;20079;-86
2021/11/07 12:46:52;;;;;;;6.30;4.80;;;24.70;99.90;;;;;;5035270;28;20437;-86
2021/11/07 12:49:28;;;;;;;5.40;4.55;;;25.20;99.90;;;;;;5035864;28;20047;-86
2021/11/07 12:52:07;;;;;;;4.65;4.25;;;26.00;99.90;;;;;;5035074;28;20430;-86
2021/11/07 12:54:35;;;;;;;5.20;4.70;;;26.60;99.90;;;;;;5035274;28;20061;-86
2021/11/07 12:57:05;;;;;;;5.90;5.28;;;26.60;99.90;;;;;;5031344;28;20030;-86
2021/11/07 12:59:55;;;;;;;4.18;3.80;;;26.90;99.90;;;;;;5033411;28;20025;-86
2021/11/07 13:02:30;;;;;;;5.53;4.13;;;26.60;99.90;;;;;;5048110;28;20461;-85
2021/11/07 13:05:16;;;;;;;4.45;3.60;;;26.30;99.90;;;;;;5034418;28;20473;-85
2021/11/07 13:10:32;;;;;;;3.95;3.45;;;26.40;99.90;;;;;;5034710;28;20049;-86
2021/11/07 13:13:08;;;;;;;5.63;4.00;;;26.00;99.90;;;;;;5034628;28;20470;-86
2021/11/07 13:31:38;;;;;;;4.68;2.67;;;21.60;99.90;;;;;;4978963;28;20034;-86
2021/11/07 13:34:07;;;;;;;4.22;2.97;;;23.00;99.90;;;;;;4979283;28;20455;-86
2021/11/07 13:36:42;;;;;;;3.35;2.45;;;24.20;99.90;;;;;;4978655;28;20050;-86
2021/11/07 13:39:09;;;;;;;3.50;2.90;;;24.70;99.90;;;;;;4974596;28;20050;-86
2021/11/07 13:41:35;;;;;;;3.25;2.08;;;24.50;99.90;;;;;;4988650;28;20129;-86
2021/11/07 13:44:11;;;;;;;2.85;1.92;;;23.90;99.90;;;;;;4977041;28;20498;-86
2021/11/07 13:46:47;;;;;;;2.53;1.85;;;22.70;99.90;;;;;;4978648;28;20399;-86
2021/11/07 13:49:13;;;;;;;3.33;2.08;;;21.90;99.90;;;;;;4978483;28;20522;-87
2021/11/07 13:51:52;;;;;;;2.90;1.80;;;22.30;99.90;;;;;;4978888;28;20117;-87
2021/11/07 13:54:17;;;;;;;3.03;1.83;;;20.10;99.90;;;;;;4979085;28;20811;-87
2021/11/07 13:56:48;;;;;;;2.30;1.70;;;19.70;99.90;;;;;;5045990;28;20063;-87
2021/11/07 13:59:27;;;;;;;2.65;1.58;;;20.10;99.90;;;;;;5042811;28;20027;-86
2021/11/07 14:01:52;;;;;;;2.22;1.77;;;20.30;99.90;;;;;;5033177;28;20066;-87
2021/11/07 14:04:18;;;;;;;2.95;1.88;;;20.60;99.90;;;;;;5032642;28;20030;-87
2021/11/07 14:06:44;;;;;;;3.58;1.50;;;20.40;99.90;;;;;;5033815;28;20029;-86
2021/11/07 14:09:10;;;;;;;2.70;1.80;;;20.10;99.90;;;;;;5032422;28;20063;-87
2021/11/07 14:11:38;;;;;;;2.53;1.50;;;21.00;99.90;;;;;;5030919;28;20447;-87
2021/11/07 14:14:12;;;;;;;2.72;1.70;;;18.80;99.90;;;;;;5035359;28;20384;-86
2021/11/07 14:16:54;;;;;;;2.47;1.75;;;18.30;99.90;;;;;;5033029;28;20033;-87
2021/11/07 14:19:20;;;;;;;3.92;2.00;;;18.30;99.90;;;;;;5032579;28;20493;-86
2021/11/07 14:21:50;;;;;;;3.10;1.85;;;19.60;99.90;;;;;;5036798;28;20024;-87
2021/11/07 14:24:29;;;;;;;3.10;1.50;;;20.70;99.90;;;;;;5037207;28;20497;-86
2021/11/07 14:27:04;;;;;;;1.60;1.40;;;20.40;99.90;;;;;;5019257;28;20037;-87
2021/11/07 14:29:47;;;;;;;4.43;1.77;;;21.40;99.90;;;;;;5035804;28;20393;-86
2021/11/07 14:37:49;;;;;;;2.20;1.60;;;20.80;99.90;;;;;;5037831;28;20041;-87
2021/11/07 14:40:21;;;;;;;3.20;2.10;;;19.60;99.90;;;;;;5037337;28;20140;-87
2021/11/07 14:43:06;;;;;;;2.60;1.33;;;19.30;99.90;;;;;;5037719;28;20025;-86
2021/11/07 14:53:46;;;;;;;2.78;2.10;;;19.00;99.90;;;;;;5048416;28;20493;-87
2021/11/07 14:56:37;;;;;;;4.93;1.48;;;18.20;99.90;;;;;;5038900;28;20052;-86
2021/11/07 14:59:15;;;;;;;2.22;1.40;;;17.10;99.90;;;;;;5037200;28;20044;-87
2021/11/07 15:01:45;;;;;;;2.30;1.73;;;16.50;99.90;;;;;;5037248;28;20108;-86
2021/11/07 15:04:19;;;;;;;3.45;1.70;;;16.90;99.90;;;;;;5037063;28;20017;-87
2021/11/07 15:07:03;;;;;;;2.58;1.70;;;16.50;99.90;;;;;;5037427;28;20080;-87
2021/11/07 15:09:46;;;;;;;2.33;1.58;;;17.00;99.90;;;;;;5037410;28;20528;-86
2021/11/07 15:17:45;;;;;;;1.75;1.45;;;16.30;99.90;;;;;;5047908;28;21195;-86
2021/11/07 15:20:24;;;;;;;2.38;1.60;;;16.90;99.90;;;;;;5039194;28;20033;-87
2021/11/07 15:22:51;;;;;;;1.90;1.50;;;16.90;99.90;;;;;;5035457;28;20029;-87
2021/11/07 15:25:19;;;;;;;3.38;1.90;;;16.10;99.90;;;;;;5036493;28;20033;-86
2021/11/07 15:28:15;;;;;;;3.13;1.65;;;15.50;99.90;;;;;;5056025;28;20408;-86
2021/11/07 15:30:42;;;;;;;3.47;2.10;;;15.30;99.90;;;;;;5047640;28;20136;-87
2021/11/07 15:33:13;;;;;;;3.17;2.40;;;15.10;99.90;;;;;;5053693;28;20027;-86
2021/11/07 15:35:50;;;;;;;4.00;3.50;;;15.10;99.90;;;;;;5052938;28;20119;-87